Berlin — 9HA2295 — position and weather

sailwx.info

Track history (hours):
 
Tides and Currents Weather Stations Pressure Air Temp Water Temp Dewpoint Dewpoint Depression Visibility Wind Speed Wind Dir Waves Ship Positions

Berlin

Last reported at 2016-Jun-26 17:27 UTC. Time now 2016-Jun-27 13:15 UTC.
Position N 63°29' E 008°60'.

Length 140 m; draft 5.1 m.

Type: Ship. MMSI: 248277000.

Date/timePositionNaut miles runAvg speedWind from/ knotsBaromVisibWave heightAir tempDewpointWater temp
2016-Jun-26 17:27N 63°29' E 008°60'1314.1
2016-Jun-26 16:31N 63°35' E 009°26'7812.3
2016-Jun-26 10:12N 64°43' E 010°53'813.3
2016-Jun-26 09:33N 64°49' E 011°08'1211.8
2016-Jun-26 08:33N 64°57' E 011°28'1313.4
2016-Jun-26 07:33N 65°07' E 011°49'1414.2
2016-Jun-26 06:33N 65°20' E 012°01'1110.6
2016-Jun-26 05:33N 65°31' E 012°01'4314.0
2016-Jun-26 02:28N 66°09' E 012°49'1314.1
2016-Jun-26 01:33N 66°22' E 012°58'2613.3
2016-Jun-25 23:33N 66°47' E 013°15'1111.3
2016-Jun-25 22:33N 66°57' E 013°29'1313.4
2016-Jun-25 21:33N 67°05' E 013°56'1414.0
2016-Jun-25 20:33N 67°17' E 014°15'1312.5
2016-Jun-25 19:33N 67°29' E 014°22'1414.2
2016-Jun-25 18:33N 67°42' E 014°05'19 1.5
2016-Jun-25 05:29N 68°01' E 013°56'9811.9
2016-Jun-24 21:14N 69°04' E 017°22'913.5
2016-Jun-24 20:33N 69°08' E 017°45'10 9.4
2016-Jun-24 19:33N 69°16' E 017°58'  
Track history (hours):
 
Tides and Currents Weather Stations Pressure Air Temp Water Temp Dewpoint Dewpoint Depression Visibility Wind Speed Wind Dir Waves Ship Positions

Berlin

Last reported at 2016-Jun-26 17:27 UTC. Time now 2016-Jun-27 13:15 UTC.
Position N 63°29' E 008°60'.

Length 140 m; draft 5.1 m.

Type: Ship. MMSI: 248277000.

Date/timePositionNaut miles runAvg speedWind from/ knotsBaromVisibWave heightAir tempDewpointWater temp
2016-Jun-26 17:27N 63°29' E 008°60'1314.1
2016-Jun-26 16:31N 63°35' E 009°26'7812.3
2016-Jun-26 10:12N 64°43' E 010°53'813.3
2016-Jun-26 09:33N 64°49' E 011°08'1211.8
2016-Jun-26 08:33N 64°57' E 011°28'1313.4
2016-Jun-26 07:33N 65°07' E 011°49'1414.2
2016-Jun-26 06:33N 65°20' E 012°01'1110.6
2016-Jun-26 05:33N 65°31' E 012°01'4314.0
2016-Jun-26 02:28N 66°09' E 012°49'1314.1
2016-Jun-26 01:33N 66°22' E 012°58'2613.3
2016-Jun-25 23:33N 66°47' E 013°15'1111.3
2016-Jun-25 22:33N 66°57' E 013°29'1313.4
2016-Jun-25 21:33N 67°05' E 013°56'1414.0
2016-Jun-25 20:33N 67°17' E 014°15'1312.5
2016-Jun-25 19:33N 67°29' E 014°22'1414.2
2016-Jun-25 18:33N 67°42' E 014°05'19 1.5
2016-Jun-25 05:29N 68°01' E 013°56'9811.9
2016-Jun-24 21:14N 69°04' E 017°22'913.5
2016-Jun-24 20:33N 69°08' E 017°45'10 9.4
2016-Jun-24 19:33N 69°16' E 017°58'  

Dump ship's entire track history